createdAt,value
2023-05-12T00:03:04.708Z,20.23
2023-05-12T00:08:26.671Z,20.20
2023-05-12T00:13:48.663Z,20.21
2023-05-12T00:19:10.587Z,20.18
2023-05-12T00:24:32.755Z,20.18
2023-05-12T00:29:54.546Z,20.16
2023-05-12T00:35:17.295Z,20.16
2023-05-12T00:40:41.549Z,20.14
2023-05-12T00:46:05.820Z,20.13
2023-05-12T00:51:28.203Z,20.13
2023-05-12T00:56:50.066Z,20.11
2023-05-12T01:02:12.116Z,20.11
2023-05-12T01:07:34.157Z,20.09
2023-05-12T01:12:56.448Z,20.07
2023-05-12T01:18:20.877Z,20.07
2023-05-12T01:23:46.993Z,20.05
2023-05-12T01:29:09.017Z,20.04
2023-05-12T01:34:31.020Z,20.03
2023-05-12T01:39:56.226Z,20.03
2023-05-12T01:45:18.058Z,20.01
2023-05-12T01:50:39.880Z,19.99
2023-05-12T01:56:02.030Z,19.98
2023-05-12T02:01:25.890Z,19.97
2023-05-12T02:06:50.768Z,19.96
2023-05-12T02:12:12.627Z,19.92
2023-05-12T02:17:34.414Z,19.92
2023-05-12T02:22:56.581Z,19.89
2023-05-12T02:28:18.383Z,19.88
2023-05-12T02:33:40.158Z,19.86
2023-05-12T02:39:01.982Z,19.86
2023-05-12T02:44:23.906Z,19.84
2023-05-12T02:49:45.668Z,19.84
2023-05-12T02:55:07.874Z,19.84
2023-05-12T03:00:29.658Z,19.82
2023-05-12T03:05:53.040Z,19.81
2023-05-12T03:11:15.602Z,19.81
2023-05-12T03:16:37.396Z,19.79
2023-05-12T03:21:59.298Z,19.78
2023-05-12T03:27:22.109Z,19.78
2023-05-12T03:32:45.497Z,19.77
2023-05-12T03:38:07.317Z,19.75
2023-05-12T03:43:29.356Z,19.75
2023-05-12T03:48:51.221Z,19.73
2023-05-12T03:54:13.073Z,19.73
2023-05-12T03:59:35.104Z,19.71
2023-05-12T04:04:57.404Z,19.69
2023-05-12T04:10:19.517Z,19.69
2023-05-12T04:15:41.418Z,19.68
2023-05-12T04:21:03.250Z,19.67
2023-05-12T04:26:25.088Z,19.66
2023-05-12T04:31:47.160Z,19.65
2023-05-12T04:37:09.060Z,19.64
2023-05-12T04:42:31.201Z,19.63
2023-05-12T04:47:53.122Z,19.63
2023-05-12T04:53:18.866Z,19.61
2023-05-12T04:58:40.832Z,19.59
2023-05-12T05:04:02.925Z,19.57
2023-05-12T05:09:24.734Z,19.55
2023-05-12T05:14:46.581Z,19.56
2023-05-12T05:20:11.823Z,19.55
2023-05-12T05:25:34.741Z,19.55
2023-05-12T05:30:56.982Z,19.62
2023-05-12T05:36:18.892Z,19.68
2023-05-12T05:41:40.774Z,19.72
2023-05-12T05:47:03.348Z,19.75
2023-05-12T05:52:25.240Z,19.74
2023-05-12T05:57:47.089Z,19.73
2023-05-12T06:03:09.084Z,19.70
2023-05-12T06:08:30.939Z,19.67
2023-05-12T06:13:52.892Z,19.66
2023-05-12T06:19:15.854Z,19.63
2023-05-12T06:24:37.705Z,19.61
2023-05-12T06:29:59.524Z,19.61
2023-05-12T06:35:21.608Z,19.56
2023-05-12T06:40:43.562Z,19.55
2023-05-12T06:46:05.775Z,19.52
2023-05-12T06:51:27.648Z,19.51
2023-05-12T06:56:49.453Z,19.51
2023-05-12T07:02:11.359Z,19.50
2023-05-12T07:07:33.132Z,19.52
2023-05-12T07:12:54.957Z,19.52
2023-05-12T07:18:16.927Z,19.51
2023-05-12T07:23:41.637Z,19.57
2023-05-12T07:29:04.448Z,19.64
2023-05-12T07:34:26.302Z,19.75
2023-05-12T07:39:48.078Z,19.80
2023-05-12T07:45:10.204Z,19.88
2023-05-12T07:50:32.038Z,19.95
2023-05-12T07:55:53.939Z,20.03
2023-05-12T08:01:15.798Z,20.09
2023-05-12T08:06:38.187Z,20.11
2023-05-12T08:12:00.527Z,20.15
2023-05-12T08:17:22.548Z,20.18
2023-05-12T08:22:44.953Z,20.19
2023-05-12T08:28:06.792Z,20.20
2023-05-12T08:33:28.941Z,20.23
2023-05-12T08:38:50.805Z,20.25
2023-05-12T08:44:13.294Z,20.32
2023-05-12T08:49:36.714Z,20.36
2023-05-12T08:55:00.736Z,20.38
2023-05-12T09:00:25.819Z,20.41
2023-05-12T09:05:47.982Z,20.47
2023-05-12T09:11:13.114Z,20.51
2023-05-12T09:16:42.005Z,20.55
2023-05-12T09:22:04.182Z,20.60
2023-05-12T09:27:29.953Z,20.68
2023-05-12T09:32:51.829Z,20.78
2023-05-12T09:38:14.890Z,20.80
2023-05-12T09:43:37.863Z,20.79
2023-05-12T09:49:00.308Z,20.80
2023-05-12T09:54:32.279Z,20.85
2023-05-12T09:59:54.829Z,20.81
2023-05-12T10:05:21.158Z,20.87
2023-05-12T10:10:48.739Z,20.94
2023-05-12T10:16:10.879Z,20.95
2023-05-12T10:21:34.147Z,20.95
2023-05-12T10:26:56.874Z,20.90
2023-05-12T10:32:18.827Z,20.89
2023-05-12T10:37:43.029Z,20.88
2023-05-12T10:43:05.163Z,20.84
2023-05-12T10:48:27.118Z,20.84
2023-05-12T10:53:54.866Z,20.86
2023-05-12T10:59:25.602Z,20.87
2023-05-12T11:04:52.812Z,20.86
2023-05-12T11:10:15.202Z,20.88
2023-05-12T11:15:38.055Z,20.90
2023-05-12T11:21:09.977Z,20.90
2023-05-12T11:26:32.126Z,20.87
2023-05-12T11:31:54.223Z,20.86
2023-05-12T11:37:16.084Z,20.88
2023-05-12T11:42:39.497Z,20.86
2023-05-12T11:48:14.336Z,20.83
2023-05-12T11:53:41.332Z,20.83
2023-05-12T11:59:03.151Z,20.83
2023-05-12T12:04:51.105Z,20.89
2023-05-12T12:10:18.301Z,20.92
2023-05-12T12:15:40.142Z,20.99
2023-05-12T12:21:02.037Z,21.08
2023-05-12T12:26:23.928Z,21.11
2023-05-12T12:31:46.142Z,21.13
2023-05-12T12:37:08.080Z,21.17
2023-05-12T12:42:30.306Z,21.18
2023-05-12T12:47:52.872Z,21.16
2023-05-12T12:53:14.693Z,21.12
2023-05-12T12:58:36.523Z,21.13
2023-05-12T13:04:00.514Z,21.11
2023-05-12T13:09:22.327Z,21.12
2023-05-12T13:14:44.223Z,21.04
2023-05-12T13:20:06.677Z,20.99
2023-05-12T13:25:28.468Z,20.92
2023-05-12T13:30:53.461Z,20.88
2023-05-12T13:36:15.288Z,20.84
2023-05-12T13:41:37.518Z,20.82
2023-05-12T13:46:59.428Z,20.80
2023-05-12T13:52:21.196Z,20.80
2023-05-12T13:57:42.978Z,20.77
2023-05-12T14:03:04.902Z,20.77
2023-05-12T14:08:26.773Z,20.80
2023-05-12T14:13:48.548Z,20.80
2023-05-12T14:19:10.371Z,20.84
2023-05-12T14:24:32.411Z,20.86
2023-05-12T14:29:54.264Z,20.84
2023-05-12T14:35:16.168Z,20.84
2023-05-12T14:40:39.632Z,20.80
2023-05-12T14:46:02.495Z,20.77
2023-05-12T14:51:24.321Z,20.75
2023-05-12T14:56:46.086Z,20.77
2023-05-12T15:02:07.999Z,20.77
2023-05-12T15:07:29.857Z,20.75
2023-05-12T15:12:51.723Z,20.74
2023-05-12T15:18:13.546Z,20.69
2023-05-12T15:23:35.417Z,20.62
2023-05-12T15:28:57.258Z,20.56
2023-05-12T15:34:19.062Z,20.57
2023-05-12T15:39:40.843Z,20.61
2023-05-12T15:45:02.918Z,20.65
2023-05-12T15:50:24.866Z,20.70
2023-05-12T15:55:47.162Z,20.75
2023-05-12T16:01:08.960Z,20.80
2023-05-12T16:06:30.749Z,20.85
2023-05-12T16:11:53.438Z,20.87
2023-05-12T16:17:15.231Z,20.88
2023-05-12T16:22:37.096Z,20.88
2023-05-12T16:27:59.224Z,20.92
2023-05-12T16:33:21.045Z,20.92
2023-05-12T16:38:42.990Z,20.95
2023-05-12T16:44:05.269Z,20.96
2023-05-12T16:49:27.081Z,20.90
2023-05-12T16:54:48.883Z,20.87
2023-05-12T17:00:11.457Z,20.85
2023-05-12T17:05:33.555Z,20.80
2023-05-12T17:10:55.328Z,20.74
2023-05-12T17:16:17.221Z,20.70
2023-05-12T17:21:39.049Z,20.66
2023-05-12T17:27:01.456Z,20.63
2023-05-12T17:32:23.443Z,20.59
2023-05-12T17:37:45.436Z,20.56
2023-05-12T17:43:07.630Z,20.58
2023-05-12T17:48:33.487Z,20.56
2023-05-12T17:53:55.430Z,20.53
2023-05-12T17:59:17.418Z,20.51
2023-05-12T18:04:40.134Z,20.50
2023-05-12T18:10:02.906Z,20.53
2023-05-12T18:15:25.182Z,20.58
2023-05-12T18:20:47.128Z,20.64
2023-05-12T18:26:09.551Z,20.68
2023-05-12T18:31:31.483Z,20.70
2023-05-12T18:36:53.813Z,20.72
2023-05-12T18:42:15.612Z,20.73
2023-05-12T18:47:37.709Z,20.76
2023-05-12T18:52:59.614Z,20.77
2023-05-12T18:58:21.737Z,20.73
2023-05-12T19:03:43.569Z,20.77
2023-05-12T19:09:05.847Z,20.83
2023-05-12T19:14:27.640Z,20.88
2023-05-12T19:19:51.053Z,20.91
2023-05-12T19:25:18.100Z,20.93
2023-05-12T19:30:39.935Z,20.95
2023-05-12T19:36:02.307Z,20.97
2023-05-12T19:41:24.488Z,20.99
2023-05-12T19:46:47.281Z,21.01
2023-05-12T19:52:09.078Z,21.04
2023-05-12T19:57:31.107Z,21.06
2023-05-12T20:02:53.177Z,21.05
2023-05-12T20:08:15.195Z,21.01
2023-05-12T20:13:37.040Z,20.97
2023-05-12T20:19:00.042Z,20.92
2023-05-12T20:24:23.736Z,20.85
2023-05-12T20:29:45.549Z,20.80
2023-05-12T20:35:07.688Z,20.75
2023-05-12T20:40:29.792Z,20.70
2023-05-12T20:45:51.669Z,20.65
2023-05-12T20:51:13.677Z,20.60
2023-05-12T20:56:35.434Z,20.54
2023-05-12T21:01:57.374Z,20.51
2023-05-12T21:07:20.045Z,20.47
2023-05-12T21:12:41.971Z,20.45
2023-05-12T21:18:04.400Z,20.43
2023-05-12T21:23:26.539Z,20.40
2023-05-12T21:28:48.309Z,20.38
2023-05-12T21:34:10.625Z,20.36
2023-05-12T21:39:32.380Z,20.33
2023-05-12T21:44:54.182Z,20.31
2023-05-12T21:50:17.001Z,20.28
2023-05-12T21:55:40.867Z,20.27
2023-05-12T22:01:02.816Z,20.26
2023-05-12T22:06:24.891Z,20.23
2023-05-12T22:11:46.916Z,20.22
2023-05-12T22:17:09.250Z,20.21
2023-05-12T22:22:31.199Z,20.20
2023-05-12T22:27:53.179Z,20.18
2023-05-12T22:33:17.956Z,20.18
2023-05-12T22:38:39.842Z,20.16
2023-05-12T22:44:01.679Z,20.15
2023-05-12T22:49:23.674Z,20.14
2023-05-12T22:54:45.690Z,20.14
2023-05-12T23:00:07.862Z,20.12
2023-05-12T23:05:29.677Z,20.11
2023-05-12T23:10:51.402Z,20.09
2023-05-12T23:16:13.194Z,20.08
2023-05-12T23:21:35.067Z,20.08
2023-05-12T23:26:56.917Z,20.06
2023-05-12T23:32:18.798Z,20.05
2023-05-12T23:37:40.793Z,20.04
2023-05-12T23:43:02.725Z,20.04
2023-05-12T23:48:24.884Z,20.03
2023-05-12T23:53:46.726Z,20.01
2023-05-12T23:59:09.329Z,20.02
